Weather at Terminal 6 Airport

Public forecast

Using degrees Celsius for public forecast. Weather courtesy of forecast.io.

Closest aviation weather report (METAR) to Terminal 6 Airport

Closest report is Rosario Islas Malvinas International Airport, 15.8 nm (29.3 km) S.

2024/05/25 04:00 (retrieved 20 minutes ago)

SAAR 250400Z 21005KT CAVOK 03/M00 Q1030

Closest aviation forecast (TAF) to Terminal 6 Airport

Forecast is more than 6 hours old.

Closest forecast is Rubem Berta Airport, 256.6 nm (475.3 km) NE.

2024/05/24 18:00 (retrieved 10 hours ago)

TAF SBUG 241600Z 2418/2506 19010KT 9999 BKN035 TX12/2418Z TN07/2506Z PROB40 2418/2420 19015G30KT RMK PFR